sensor_id;sensor_type;location;lat;lon;timestamp;temperature;humidity
16128;DHT22;8168;49.036;7.690;2023-02-22T00:02:28;3.60;99.90
16128;DHT22;8168;49.036;7.690;2023-02-22T00:17:35;3.60;99.90
16128;DHT22;8168;49.036;7.690;2023-02-22T00:20:07;3.50;99.90
16128;DHT22;8168;49.036;7.690;2023-02-22T00:22:38;3.50;99.90
16128;DHT22;8168;49.036;7.690;2023-02-22T00:25:09;3.50;99.90
16128;DHT22;8168;49.036;7.690;2023-02-22T00:30:20;3.50;99.90
16128;DHT22;8168;49.036;7.690;2023-02-22T00:32:53;3.40;99.90
16128;DHT22;8168;49.036;7.690;2023-02-22T00:35:27;3.40;99.90
16128;DHT22;8168;49.036;7.690;2023-02-22T00:38:00;3.30;99.90
16128;DHT22;8168;49.036;7.690;2023-02-22T00:40:33;3.30;99.90
16128;DHT22;8168;49.036;7.690;2023-02-22T00:43:04;3.30;99.90
16128;DHT22;8168;49.036;7.690;2023-02-22T00:45:36;3.30;99.90
16128;DHT22;8168;49.036;7.690;2023-02-22T00:48:07;3.30;99.90
16128;DHT22;8168;49.036;7.690;2023-02-22T01:03:18;3.10;99.90
16128;DHT22;8168;49.036;7.690;2023-02-22T01:18:30;2.90;99.90
16128;DHT22;8168;49.036;7.690;2023-02-22T01:21:01;2.90;99.90
16128;DHT22;8168;49.036;7.690;2023-02-22T01:26:03;2.90;99.90
16128;DHT22;8168;49.036;7.690;2023-02-22T01:28:36;2.90;99.90
16128;DHT22;8168;49.036;7.690;2023-02-22T01:31:07;2.80;99.90
16128;DHT22;8168;49.036;7.690;2023-02-22T01:33:39;2.90;99.90
16128;DHT22;8168;49.036;7.690;2023-02-22T01:46:25;2.80;99.90
16128;DHT22;8168;49.036;7.690;2023-02-22T01:49:00;2.80;99.90
16128;DHT22;8168;49.036;7.690;2023-02-22T01:51:36;2.80;99.90
16128;DHT22;8168;49.036;7.690;2023-02-22T01:54:18;2.70;99.90
16128;DHT22;8168;49.036;7.690;2023-02-22T01:56:57;2.70;99.90
16128;DHT22;8168;49.036;7.690;2023-02-22T01:59:31;2.70;99.90
16128;DHT22;8168;49.036;7.690;2023-02-22T02:04:35;2.70;99.90
16128;DHT22;8168;49.036;7.690;2023-02-22T02:07:08;2.70;99.90
16128;DHT22;8168;49.036;7.690;2023-02-22T02:09:58;2.70;99.90
16128;DHT22;8168;49.036;7.690;2023-02-22T02:12:33;2.70;99.90
16128;DHT22;8168;49.036;7.690;2023-02-22T02:15:26;2.60;99.90
16128;DHT22;8168;49.036;7.690;2023-02-22T02:18:03;2.60;99.90
16128;DHT22;8168;49.036;7.690;2023-02-22T02:31:57;2.50;99.90
16128;DHT22;8168;49.036;7.690;2023-02-22T02:40:25;2.40;99.90
16128;DHT22;8168;49.036;7.690;2023-02-22T02:46:26;2.40;99.90
16128;DHT22;8168;49.036;7.690;2023-02-22T02:49:04;2.30;99.90
16128;DHT22;8168;49.036;7.690;2023-02-22T02:51:43;2.30;99.90
16128;DHT22;8168;49.036;7.690;2023-02-22T02:54:15;2.30;99.90
16128;DHT22;8168;49.036;7.690;2023-02-22T03:26:34;2.30;99.90
16128;DHT22;8168;49.036;7.690;2023-02-22T03:29:08;2.20;99.90
16128;DHT22;8168;49.036;7.690;2023-02-22T03:31:59;2.20;99.90
16128;DHT22;8168;49.036;7.690;2023-02-22T03:34:36;2.20;99.90
16128;DHT22;8168;49.036;7.690;2023-02-22T03:37:16;2.20;99.90
16128;DHT22;8168;49.036;7.690;2023-02-22T03:39:50;2.20;99.90
16128;DHT22;8168;49.036;7.690;2023-02-22T03:42:31;2.20;99.90
16128;DHT22;8168;49.036;7.690;2023-02-22T03:45:04;2.20;99.90
16128;DHT22;8168;49.036;7.690;2023-02-22T03:47:45;2.20;99.90
16128;DHT22;8168;49.036;7.690;2023-02-22T03:50:24;2.20;99.90
16128;DHT22;8168;49.036;7.690;2023-02-22T03:52:56;2.30;99.90
16128;DHT22;8168;49.036;7.690;2023-02-22T03:58:08;2.20;99.90
16128;DHT22;8168;49.036;7.690;2023-02-22T04:08:16;2.10;99.90
16128;DHT22;8168;49.036;7.690;2023-02-22T05:06:10;2.00;99.90
16128;DHT22;8168;49.036;7.690;2023-02-22T05:16:15;2.10;99.90
16128;DHT22;8168;49.036;7.690;2023-02-22T05:41:27;1.90;99.90
16128;DHT22;8168;49.036;7.690;2023-02-22T05:49:03;1.80;99.90
16128;DHT22;8168;49.036;7.690;2023-02-22T06:16:51;1.70;99.90
16128;DHT22;8168;49.036;7.690;2023-02-22T06:19:22;1.70;99.90
16128;DHT22;8168;49.036;7.690;2023-02-22T06:21:55;1.70;99.90
16128;DHT22;8168;49.036;7.690;2023-02-22T06:26:59;1.70;99.90
16128;DHT22;8168;49.036;7.690;2023-02-22T07:07:17;1.60;99.90
16128;DHT22;8168;49.036;7.690;2023-02-22T07:14:54;1.60;99.90
16128;DHT22;8168;49.036;7.690;2023-02-22T07:40:04;1.80;99.90
16128;DHT22;8168;49.036;7.690;2023-02-22T07:43:02;1.80;99.90
16128;DHT22;8168;49.036;7.690;2023-02-22T07:45:34;1.90;99.90
16128;DHT22;8168;49.036;7.690;2023-02-22T07:48:06;1.90;99.90
16128;DHT22;8168;49.036;7.690;2023-02-22T07:50:38;2.00;99.90
16128;DHT22;8168;49.036;7.690;2023-02-22T07:53:15;2.00;99.90
16128;DHT22;8168;49.036;7.690;2023-02-22T07:58:22;2.10;99.90
16128;DHT22;8168;49.036;7.690;2023-02-22T08:00:53;2.20;99.90
16128;DHT22;8168;49.036;7.690;2023-02-22T08:03:25;2.30;99.90
16128;DHT22;8168;49.036;7.690;2023-02-22T08:05:57;2.30;99.90
16128;DHT22;8168;49.036;7.690;2023-02-22T08:16:03;2.50;99.90
16128;DHT22;8168;49.036;7.690;2023-02-22T08:26:11;2.70;99.90
16128;DHT22;8168;49.036;7.690;2023-02-22T08:33:47;3.00;99.90
16128;DHT22;8168;49.036;7.690;2023-02-22T08:51:25;3.50;99.90
16128;DHT22;8168;49.036;7.690;2023-02-22T08:58:59;3.70;99.90
16128;DHT22;8168;49.036;7.690;2023-02-22T09:01:30;3.80;99.90
16128;DHT22;8168;49.036;7.690;2023-02-22T09:04:02;3.90;99.90
16128;DHT22;8168;49.036;7.690;2023-02-22T09:09:03;4.10;99.90
16128;DHT22;8168;49.036;7.690;2023-02-22T09:11:34;4.10;99.90
16128;DHT22;8168;49.036;7.690;2023-02-22T09:14:05;4.20;99.90
16128;DHT22;8168;49.036;7.690;2023-02-22T09:16:35;4.30;99.90
16128;DHT22;8168;49.036;7.690;2023-02-22T09:19:07;4.40;99.90
16128;DHT22;8168;49.036;7.690;2023-02-22T09:21:38;4.40;99.90
16128;DHT22;8168;49.036;7.690;2023-02-22T09:24:09;4.60;99.90
16128;DHT22;8168;49.036;7.690;2023-02-22T09:26:45;4.70;99.90
16128;DHT22;8168;49.036;7.690;2023-02-22T09:29:16;4.70;99.90
16128;DHT22;8168;49.036;7.690;2023-02-22T09:31:48;4.80;99.90
16128;DHT22;8168;49.036;7.690;2023-02-22T09:34:20;5.00;99.90
16128;DHT22;8168;49.036;7.690;2023-02-22T09:36:52;5.00;99.90
16128;DHT22;8168;49.036;7.690;2023-02-22T09:39:23;5.20;99.90
16128;DHT22;8168;49.036;7.690;2023-02-22T09:47:18;5.30;99.90
16128;DHT22;8168;49.036;7.690;2023-02-22T09:52:36;5.60;99.90
16128;DHT22;8168;49.036;7.690;2023-02-22T09:55:19;5.70;99.90
16128;DHT22;8168;49.036;7.690;2023-02-22T09:57:57;5.90;99.90
16128;DHT22;8168;49.036;7.690;2023-02-22T10:00:32;6.00;99.90
16128;DHT22;8168;49.036;7.690;2023-02-22T10:06:12;6.30;99.90
16128;DHT22;8168;49.036;7.690;2023-02-22T10:08:44;6.50;99.90
16128;DHT22;8168;49.036;7.690;2023-02-22T10:11:48;6.70;99.90
16128;DHT22;8168;49.036;7.690;2023-02-22T10:23:49;5.30;99.90
16128;DHT22;8168;49.036;7.690;2023-02-22T10:25:50;8.80;99.90
16128;DHT22;8168;49.036;7.690;2023-02-22T10:28:34;8.80;99.90
16128;DHT22;8168;49.036;7.690;2023-02-22T10:31:07;8.90;99.90
16128;DHT22;8168;49.036;7.690;2023-02-22T10:33:46;9.20;99.90
16128;DHT22;8168;49.036;7.690;2023-02-22T10:36:19;9.30;99.90
16128;DHT22;8168;49.036;7.690;2023-02-22T10:39:01;9.60;99.90
16128;DHT22;8168;49.036;7.690;2023-02-22T10:41:44;9.80;99.90
16128;DHT22;8168;49.036;7.690;2023-02-22T10:44:18;9.90;99.90
16128;DHT22;8168;49.036;7.690;2023-02-22T10:46:49;10.00;99.90
16128;DHT22;8168;49.036;7.690;2023-02-22T10:49:22;10.30;99.90
16128;DHT22;8168;49.036;7.690;2023-02-22T10:52:01;10.50;99.90
16128;DHT22;8168;49.036;7.690;2023-02-22T10:54:37;10.60;99.90
16128;DHT22;8168;49.036;7.690;2023-02-22T10:57:10;10.80;99.90
16128;DHT22;8168;49.036;7.690;2023-02-22T10:59:41;11.10;99.90
16128;DHT22;8168;49.036;7.690;2023-02-22T11:04:53;11.60;99.90
16128;DHT22;8168;49.036;7.690;2023-02-22T11:07:25;11.80;99.90
16128;DHT22;8168;49.036;7.690;2023-02-22T11:09:59;12.00;99.90
16128;DHT22;8168;49.036;7.690;2023-02-22T11:12:38;12.20;99.90
16128;DHT22;8168;49.036;7.690;2023-02-22T11:15:18;12.40;99.90
16128;DHT22;8168;49.036;7.690;2023-02-22T11:17:58;12.60;99.90
16128;DHT22;8168;49.036;7.690;2023-02-22T11:20:36;12.60;99.90
16128;DHT22;8168;49.036;7.690;2023-02-22T11:23:09;12.80;99.90
16128;DHT22;8168;49.036;7.690;2023-02-22T11:25:40;12.80;99.90
16128;DHT22;8168;49.036;7.690;2023-02-22T11:28:26;12.90;99.90
16128;DHT22;8168;49.036;7.690;2023-02-22T11:31:14;13.00;99.90
16128;DHT22;8168;49.036;7.690;2023-02-22T11:33:58;13.00;99.90
16128;DHT22;8168;49.036;7.690;2023-02-22T11:36:39;13.10;99.90
16128;DHT22;8168;49.036;7.690;2023-02-22T11:39:28;13.20;99.90
16128;DHT22;8168;49.036;7.690;2023-02-22T11:42:23;13.20;99.90
16128;DHT22;8168;49.036;7.690;2023-02-22T11:45:16;13.30;99.90
16128;DHT22;8168;49.036;7.690;2023-02-22T11:56:10;13.30;99.90
16128;DHT22;8168;49.036;7.690;2023-02-22T12:16:14;13.10;99.90
16128;DHT22;8168;49.036;7.690;2023-02-22T12:21:46;13.00;99.90
16128;DHT22;8168;49.036;7.690;2023-02-22T12:24:26;13.00;99.90
16128;DHT22;8168;49.036;7.690;2023-02-22T12:27:32;12.90;99.90
16128;DHT22;8168;49.036;7.690;2023-02-22T12:30:29;12.90;99.90
16128;DHT22;8168;49.036;7.690;2023-02-22T12:33:00;12.90;99.90
16128;DHT22;8168;49.036;7.690;2023-02-22T12:35:35;13.00;99.90
16128;DHT22;8168;49.036;7.690;2023-02-22T12:38:38;13.00;99.90
16128;DHT22;8168;49.036;7.690;2023-02-22T12:41:35;13.00;99.90
16128;DHT22;8168;49.036;7.690;2023-02-22T12:44:17;13.00;99.90
16128;DHT22;8168;49.036;7.690;2023-02-22T12:46:51;13.00;99.90
16128;DHT22;8168;49.036;7.690;2023-02-22T12:49:51;13.10;99.90
16128;DHT22;8168;49.036;7.690;2023-02-22T12:52:49;13.10;99.90
16128;DHT22;8168;49.036;7.690;2023-02-22T12:55:28;13.20;99.90
16128;DHT22;8168;49.036;7.690;2023-02-22T13:00:50;13.30;99.90
16128;DHT22;8168;49.036;7.690;2023-02-22T13:03:35;13.30;99.90
16128;DHT22;8168;49.036;7.690;2023-02-22T13:20:21;13.70;99.90
16128;DHT22;8168;49.036;7.690;2023-02-22T13:26:03;13.90;99.90
16128;DHT22;8168;49.036;7.690;2023-02-22T13:29:08;13.90;99.90
16128;DHT22;8168;49.036;7.690;2023-02-22T13:55:24;14.20;99.90
16128;DHT22;8168;49.036;7.690;2023-02-22T13:57:43;14.20;99.90
16128;DHT22;8168;49.036;7.690;2023-02-22T14:00:23;14.20;99.90
16128;DHT22;8168;49.036;7.690;2023-02-22T14:05:49;14.10;99.90
16128;DHT22;8168;49.036;7.690;2023-02-22T14:16:32;14.00;99.90
16128;DHT22;8168;49.036;7.690;2023-02-22T14:19:19;13.90;99.90
16128;DHT22;8168;49.036;7.690;2023-02-22T14:21:59;13.90;99.90
16128;DHT22;8168;49.036;7.690;2023-02-22T14:24:45;13.90;99.90
16128;DHT22;8168;49.036;7.690;2023-02-22T14:27:16;13.90;99.90
16128;DHT22;8168;49.036;7.690;2023-02-22T14:29:56;13.90;99.90
16128;DHT22;8168;49.036;7.690;2023-02-22T14:32:32;13.90;99.90
16128;DHT22;8168;49.036;7.690;2023-02-22T14:35:22;13.90;99.90
16128;DHT22;8168;49.036;7.690;2023-02-22T14:37:57;13.90;99.90
16128;DHT22;8168;49.036;7.690;2023-02-22T14:40:30;13.80;99.90
16128;DHT22;8168;49.036;7.690;2023-02-22T14:43:18;13.80;99.90
16128;DHT22;8168;49.036;7.690;2023-02-22T14:45:54;13.70;99.90
16128;DHT22;8168;49.036;7.690;2023-02-22T14:48:38;13.70;99.90
16128;DHT22;8168;49.036;7.690;2023-02-22T14:51:28;13.70;99.90
16128;DHT22;8168;49.036;7.690;2023-02-22T14:56:43;13.60;99.90
16128;DHT22;8168;49.036;7.690;2023-02-22T14:59:23;13.50;99.90
16128;DHT22;8168;49.036;7.690;2023-02-22T15:02:11;13.50;99.90
16128;DHT22;8168;49.036;7.690;2023-02-22T15:04:49;13.40;99.90
16128;DHT22;8168;49.036;7.690;2023-02-22T15:07:27;13.40;99.90
16128;DHT22;8168;49.036;7.690;2023-02-22T15:10:28;13.40;99.90
16128;DHT22;8168;49.036;7.690;2023-02-22T15:13:04;13.40;99.90
16128;DHT22;8168;49.036;7.690;2023-02-22T15:15:44;13.40;99.90
16128;DHT22;8168;49.036;7.690;2023-02-22T15:18:21;13.40;99.90
16128;DHT22;8168;49.036;7.690;2023-02-22T15:20:56;13.40;99.90
16128;DHT22;8168;49.036;7.690;2023-02-22T15:23:38;13.40;99.90
16128;DHT22;8168;49.036;7.690;2023-02-22T15:26:20;13.30;99.90
16128;DHT22;8168;49.036;7.690;2023-02-22T15:28:56;13.30;99.90
16128;DHT22;8168;49.036;7.690;2023-02-22T15:31:31;13.20;99.90
16128;DHT22;8168;49.036;7.690;2023-02-22T15:34:32;13.20;99.90
16128;DHT22;8168;49.036;7.690;2023-02-22T15:37:23;13.20;99.90
16128;DHT22;8168;49.036;7.690;2023-02-22T15:40:08;13.10;99.90
16128;DHT22;8168;49.036;7.690;2023-02-22T15:42:52;13.10;99.90
16128;DHT22;8168;49.036;7.690;2023-02-22T15:45:23;13.00;99.90
16128;DHT22;8168;49.036;7.690;2023-02-22T15:47:55;13.00;99.90
16128;DHT22;8168;49.036;7.690;2023-02-22T15:50:31;13.00;99.90
16128;DHT22;8168;49.036;7.690;2023-02-22T15:53:16;13.00;99.90
16128;DHT22;8168;49.036;7.690;2023-02-22T15:55:58;13.00;99.90
16128;DHT22;8168;49.036;7.690;2023-02-22T15:58:29;13.00;99.90
16128;DHT22;8168;49.036;7.690;2023-02-22T16:01:10;13.00;99.90
16128;DHT22;8168;49.036;7.690;2023-02-22T16:03:51;14.00;99.90
16128;DHT22;8168;49.036;7.690;2023-02-22T16:06:39;13.00;99.90
16128;DHT22;8168;49.036;7.690;2023-02-22T16:09:14;12.90;99.90
16128;DHT22;8168;49.036;7.690;2023-02-22T16:11:46;12.90;99.90
16128;DHT22;8168;49.036;7.690;2023-02-22T16:19:56;12.90;99.90
16128;DHT22;8168;49.036;7.690;2023-02-22T16:22:32;12.80;99.90
16128;DHT22;8168;49.036;7.690;2023-02-22T16:27:55;12.80;99.90
16128;DHT22;8168;49.036;7.690;2023-02-22T16:33:06;12.80;99.90
16128;DHT22;8168;49.036;7.690;2023-02-22T16:35:45;12.70;99.90
16128;DHT22;8168;49.036;7.690;2023-02-22T16:38:21;12.70;99.90
16128;DHT22;8168;49.036;7.690;2023-02-22T16:40:54;12.60;99.90
16128;DHT22;8168;49.036;7.690;2023-02-22T16:43:28;12.60;99.90
16128;DHT22;8168;49.036;7.690;2023-02-22T16:46:03;12.60;99.90
16128;DHT22;8168;49.036;7.690;2023-02-22T16:48:36;12.60;99.90
16128;DHT22;8168;49.036;7.690;2023-02-22T16:51:25;12.60;99.90
16128;DHT22;8168;49.036;7.690;2023-02-22T16:53:57;12.60;99.90
16128;DHT22;8168;49.036;7.690;2023-02-22T16:56:29;12.60;99.90
16128;DHT22;8168;49.036;7.690;2023-02-22T16:59:02;12.60;99.90
16128;DHT22;8168;49.036;7.690;2023-02-22T17:01:35;12.50;99.90
16128;DHT22;8168;49.036;7.690;2023-02-22T17:04:16;12.50;99.90
16128;DHT22;8168;49.036;7.690;2023-02-22T17:06:47;12.50;99.90
16128;DHT22;8168;49.036;7.690;2023-02-22T17:09:18;12.50;99.90
16128;DHT22;8168;49.036;7.690;2023-02-22T17:11:52;12.50;99.90
16128;DHT22;8168;49.036;7.690;2023-02-22T17:14:29;12.50;99.90
16128;DHT22;8168;49.036;7.690;2023-02-22T17:17:01;12.50;99.90
16128;DHT22;8168;49.036;7.690;2023-02-22T17:19:32;12.40;99.90
16128;DHT22;8168;49.036;7.690;2023-02-22T17:22:02;12.40;99.90
16128;DHT22;8168;49.036;7.690;2023-02-22T17:24:35;12.40;99.90
16128;DHT22;8168;49.036;7.690;2023-02-22T17:27:06;12.40;99.90
16128;DHT22;8168;49.036;7.690;2023-02-22T17:29:36;12.40;99.90
16128;DHT22;8168;49.036;7.690;2023-02-22T17:32:07;12.30;99.90
16128;DHT22;8168;49.036;7.690;2023-02-22T17:34:38;12.30;99.90
16128;DHT22;8168;49.036;7.690;2023-02-22T17:37:10;12.30;99.90
16128;DHT22;8168;49.036;7.690;2023-02-22T17:39:40;12.30;99.90
16128;DHT22;8168;49.036;7.690;2023-02-22T17:42:11;12.30;99.90
16128;DHT22;8168;49.036;7.690;2023-02-22T17:44:44;12.20;99.90
16128;DHT22;8168;49.036;7.690;2023-02-22T17:47:15;12.20;99.90
16128;DHT22;8168;49.036;7.690;2023-02-22T17:49:46;12.20;99.90
16128;DHT22;8168;49.036;7.690;2023-02-22T17:52:18;12.20;99.90
16128;DHT22;8168;49.036;7.690;2023-02-22T17:54:49;12.20;99.90
16128;DHT22;8168;49.036;7.690;2023-02-22T17:57:20;12.20;99.90
16128;DHT22;8168;49.036;7.690;2023-02-22T17:59:51;12.20;99.90
16128;DHT22;8168;49.036;7.690;2023-02-22T18:02:21;12.10;99.90
16128;DHT22;8168;49.036;7.690;2023-02-22T18:04:52;12.10;99.90
16128;DHT22;8168;49.036;7.690;2023-02-22T18:07:22;12.10;99.90
16128;DHT22;8168;49.036;7.690;2023-02-22T18:09:54;12.10;99.90
16128;DHT22;8168;49.036;7.690;2023-02-22T18:12:25;12.00;99.90
16128;DHT22;8168;49.036;7.690;2023-02-22T18:14:57;12.00;99.90
16128;DHT22;8168;49.036;7.690;2023-02-22T18:17:28;12.00;99.90
16128;DHT22;8168;49.036;7.690;2023-02-22T18:20:00;12.00;99.90
16128;DHT22;8168;49.036;7.690;2023-02-22T18:22:31;11.90;99.90
16128;DHT22;8168;49.036;7.690;2023-02-22T18:25:01;11.90;99.90
16128;DHT22;8168;49.036;7.690;2023-02-22T18:27:32;11.90;99.90
16128;DHT22;8168;49.036;7.690;2023-02-22T18:30:04;11.90;99.90
16128;DHT22;8168;49.036;7.690;2023-02-22T18:32:35;11.90;99.90
16128;DHT22;8168;49.036;7.690;2023-02-22T18:35:06;11.90;99.90
16128;DHT22;8168;49.036;7.690;2023-02-22T18:37:37;11.90;99.90
16128;DHT22;8168;49.036;7.690;2023-02-22T18:40:08;11.90;99.90
16128;DHT22;8168;49.036;7.690;2023-02-22T18:42:39;11.90;99.90
16128;DHT22;8168;49.036;7.690;2023-02-22T18:45:10;11.80;99.90
16128;DHT22;8168;49.036;7.690;2023-02-22T18:47:42;11.80;99.90
16128;DHT22;8168;49.036;7.690;2023-02-22T18:50:13;11.90;99.90
16128;DHT22;8168;49.036;7.690;2023-02-22T18:52:47;8.50;99.90
16128;DHT22;8168;49.036;7.690;2023-02-22T18:55:19;11.90;99.90
16128;DHT22;8168;49.036;7.690;2023-02-22T18:57:50;8.40;99.90
16128;DHT22;8168;49.036;7.690;2023-02-22T19:00:21;11.80;99.90
16128;DHT22;8168;49.036;7.690;2023-02-22T19:02:58;11.80;99.90
16128;DHT22;8168;49.036;7.690;2023-02-22T19:05:28;11.80;99.90
16128;DHT22;8168;49.036;7.690;2023-02-22T19:07:59;11.80;99.90
16128;DHT22;8168;49.036;7.690;2023-02-22T19:10:30;11.80;99.90
16128;DHT22;8168;49.036;7.690;2023-02-22T19:13:01;11.80;99.90
16128;DHT22;8168;49.036;7.690;2023-02-22T19:15:32;11.80;99.90
16128;DHT22;8168;49.036;7.690;2023-02-22T19:18:03;11.80;99.90
16128;DHT22;8168;49.036;7.690;2023-02-22T19:20:33;11.70;99.90
16128;DHT22;8168;49.036;7.690;2023-02-22T19:23:04;11.60;99.90
16128;DHT22;8168;49.036;7.690;2023-02-22T19:25:39;11.60;99.90
16128;DHT22;8168;49.036;7.690;2023-02-22T19:28:10;11.60;99.90
16128;DHT22;8168;49.036;7.690;2023-02-22T19:30:41;11.60;99.90
16128;DHT22;8168;49.036;7.690;2023-02-22T19:33:13;11.60;99.90
16128;DHT22;8168;49.036;7.690;2023-02-22T19:35:43;11.60;99.90
16128;DHT22;8168;49.036;7.690;2023-02-22T19:38:17;11.60;99.90
16128;DHT22;8168;49.036;7.690;2023-02-22T19:40:48;11.60;99.90
16128;DHT22;8168;49.036;7.690;2023-02-22T19:43:20;11.60;99.90
16128;DHT22;8168;49.036;7.690;2023-02-22T19:45:51;11.60;99.90
16128;DHT22;8168;49.036;7.690;2023-02-22T19:48:21;11.60;99.90
16128;DHT22;8168;49.036;7.690;2023-02-22T19:50:52;11.60;99.90
16128;DHT22;8168;49.036;7.690;2023-02-22T19:53:27;11.60;99.90
16128;DHT22;8168;49.036;7.690;2023-02-22T19:55:57;11.60;99.90
16128;DHT22;8168;49.036;7.690;2023-02-22T19:58:30;11.60;99.90
16128;DHT22;8168;49.036;7.690;2023-02-22T20:01:11;11.50;99.90
16128;DHT22;8168;49.036;7.690;2023-02-22T20:03:43;11.50;99.90
16128;DHT22;8168;49.036;7.690;2023-02-22T20:06:13;11.50;99.90
16128;DHT22;8168;49.036;7.690;2023-02-22T20:08:45;11.40;99.90
16128;DHT22;8168;49.036;7.690;2023-02-22T20:11:16;11.40;99.90
16128;DHT22;8168;49.036;7.690;2023-02-22T20:13:47;11.40;99.90
16128;DHT22;8168;49.036;7.690;2023-02-22T20:16:18;11.40;99.90
16128;DHT22;8168;49.036;7.690;2023-02-22T20:18:48;11.30;99.90
16128;DHT22;8168;49.036;7.690;2023-02-22T20:21:31;11.30;99.90
16128;DHT22;8168;49.036;7.690;2023-02-22T20:24:04;11.30;99.90
16128;DHT22;8168;49.036;7.690;2023-02-22T20:26:40;11.20;99.90
16128;DHT22;8168;49.036;7.690;2023-02-22T20:29:12;11.20;99.90
16128;DHT22;8168;49.036;7.690;2023-02-22T20:31:43;11.10;99.90
16128;DHT22;8168;49.036;7.690;2023-02-22T20:34:18;11.20;99.90
16128;DHT22;8168;49.036;7.690;2023-02-22T20:36:49;11.20;99.90
16128;DHT22;8168;49.036;7.690;2023-02-22T20:39:19;11.20;99.90
16128;DHT22;8168;49.036;7.690;2023-02-22T20:41:50;11.20;99.90
16128;DHT22;8168;49.036;7.690;2023-02-22T20:44:21;11.20;99.90
16128;DHT22;8168;49.036;7.690;2023-02-22T20:46:55;11.10;99.90
16128;DHT22;8168;49.036;7.690;2023-02-22T20:49:26;11.30;99.90
16128;DHT22;8168;49.036;7.690;2023-02-22T20:51:57;11.10;99.90
16128;DHT22;8168;49.036;7.690;2023-02-22T20:54:27;11.00;99.90
16128;DHT22;8168;49.036;7.690;2023-02-22T20:56:58;11.10;99.90
16128;DHT22;8168;49.036;7.690;2023-02-22T20:59:29;11.10;99.90
16128;DHT22;8168;49.036;7.690;2023-02-22T21:02:00;11.00;99.90
16128;DHT22;8168;49.036;7.690;2023-02-22T21:04:31;11.00;99.90
16128;DHT22;8168;49.036;7.690;2023-02-22T21:07:02;11.00;99.90
16128;DHT22;8168;49.036;7.690;2023-02-22T21:09:33;11.00;99.90
16128;DHT22;8168;49.036;7.690;2023-02-22T21:12:04;11.00;99.90
16128;DHT22;8168;49.036;7.690;2023-02-22T21:14:42;11.00;99.90
16128;DHT22;8168;49.036;7.690;2023-02-22T21:17:13;11.00;99.90
16128;DHT22;8168;49.036;7.690;2023-02-22T21:19:44;11.00;99.90
16128;DHT22;8168;49.036;7.690;2023-02-22T21:22:15;11.00;99.90
16128;DHT22;8168;49.036;7.690;2023-02-22T21:24:47;11.00;99.90
16128;DHT22;8168;49.036;7.690;2023-02-22T21:27:18;10.90;99.90
16128;DHT22;8168;49.036;7.690;2023-02-22T21:29:49;10.80;99.90
16128;DHT22;8168;49.036;7.690;2023-02-22T21:32:19;10.80;99.90
16128;DHT22;8168;49.036;7.690;2023-02-22T21:34:50;10.80;99.90
16128;DHT22;8168;49.036;7.690;2023-02-22T21:37:20;10.80;99.90
16128;DHT22;8168;49.036;7.690;2023-02-22T21:39:51;10.70;99.90
16128;DHT22;8168;49.036;7.690;2023-02-22T21:42:22;10.70;99.90
16128;DHT22;8168;49.036;7.690;2023-02-22T21:44:52;10.70;99.90
16128;DHT22;8168;49.036;7.690;2023-02-22T21:47:25;10.70;99.90
16128;DHT22;8168;49.036;7.690;2023-02-22T21:49:56;10.70;99.90
16128;DHT22;8168;49.036;7.690;2023-02-22T21:52:27;10.60;99.90
16128;DHT22;8168;49.036;7.690;2023-02-22T21:54:58;10.70;99.90
16128;DHT22;8168;49.036;7.690;2023-02-22T21:57:29;10.70;99.90
16128;DHT22;8168;49.036;7.690;2023-02-22T21:59:59;10.70;99.90
16128;DHT22;8168;49.036;7.690;2023-02-22T22:02:31;10.80;99.90
16128;DHT22;8168;49.036;7.690;2023-02-22T22:05:01;10.70;99.90
16128;DHT22;8168;49.036;7.690;2023-02-22T22:07:32;10.70;99.90
16128;DHT22;8168;49.036;7.690;2023-02-22T22:10:03;10.70;99.90
16128;DHT22;8168;49.036;7.690;2023-02-22T22:12:36;10.70;99.90
16128;DHT22;8168;49.036;7.690;2023-02-22T22:15:12;10.50;99.90
16128;DHT22;8168;49.036;7.690;2023-02-22T22:17:46;10.60;99.90
16128;DHT22;8168;49.036;7.690;2023-02-22T22:20:17;10.50;99.90
16128;DHT22;8168;49.036;7.690;2023-02-22T22:22:47;10.50;99.90
16128;DHT22;8168;49.036;7.690;2023-02-22T22:25:19;10.50;99.90
16128;DHT22;8168;49.036;7.690;2023-02-22T22:27:49;10.50;99.90
16128;DHT22;8168;49.036;7.690;2023-02-22T22:30:21;10.50;99.90
16128;DHT22;8168;49.036;7.690;2023-02-22T22:32:51;10.50;99.90
16128;DHT22;8168;49.036;7.690;2023-02-22T22:35:22;10.50;99.90
16128;DHT22;8168;49.036;7.690;2023-02-22T22:37:53;10.50;99.90
16128;DHT22;8168;49.036;7.690;2023-02-22T22:40:23;10.40;99.90
16128;DHT22;8168;49.036;7.690;2023-02-22T22:42:54;10.40;99.90
16128;DHT22;8168;49.036;7.690;2023-02-22T22:45:25;10.40;99.90
16128;DHT22;8168;49.036;7.690;2023-02-22T22:47:55;10.40;99.90
16128;DHT22;8168;49.036;7.690;2023-02-22T22:50:26;10.40;99.90
16128;DHT22;8168;49.036;7.690;2023-02-22T22:52:58;10.40;99.90
16128;DHT22;8168;49.036;7.690;2023-02-22T22:55:29;10.40;99.90
16128;DHT22;8168;49.036;7.690;2023-02-22T22:58:00;10.50;99.90
16128;DHT22;8168;49.036;7.690;2023-02-22T23:00:30;10.40;99.90
16128;DHT22;8168;49.036;7.690;2023-02-22T23:03:09;10.40;99.90
16128;DHT22;8168;49.036;7.690;2023-02-22T23:05:45;10.30;99.90
16128;DHT22;8168;49.036;7.690;2023-02-22T23:08:16;10.40;99.90
16128;DHT22;8168;49.036;7.690;2023-02-22T23:10:47;10.30;99.90
16128;DHT22;8168;49.036;7.690;2023-02-22T23:13:18;10.30;99.90
16128;DHT22;8168;49.036;7.690;2023-02-22T23:15:50;10.20;99.90
16128;DHT22;8168;49.036;7.690;2023-02-22T23:18:24;10.20;99.90
16128;DHT22;8168;49.036;7.690;2023-02-22T23:20:59;10.20;99.90
16128;DHT22;8168;49.036;7.690;2023-02-22T23:23:30;10.10;99.90
16128;DHT22;8168;49.036;7.690;2023-02-22T23:29:04;10.20;99.90
16128;DHT22;8168;49.036;7.690;2023-02-22T23:31:34;10.20;99.90
16128;DHT22;8168;49.036;7.690;2023-02-22T23:34:08;10.20;99.90
16128;DHT22;8168;49.036;7.690;2023-02-22T23:36:42;10.20;99.90
16128;DHT22;8168;49.036;7.690;2023-02-22T23:39:17;10.30;99.90
16128;DHT22;8168;49.036;7.690;2023-02-22T23:41:53;10.20;99.90
16128;DHT22;8168;49.036;7.690;2023-02-22T23:44:24;10.20;99.90
16128;DHT22;8168;49.036;7.690;2023-02-22T23:46:56;10.20;99.90
16128;DHT22;8168;49.036;7.690;2023-02-22T23:49:28;10.20;99.90
16128;DHT22;8168;49.036;7.690;2023-02-22T23:52:08;10.20;99.90
16128;DHT22;8168;49.036;7.690;2023-02-22T23:54:38;10.10;99.90
16128;DHT22;8168;49.036;7.690;2023-02-22T23:57:13;10.10;99.90
16128;DHT22;8168;49.036;7.690;2023-02-22T23:59:47;10.10;99.90
